<?xml version="1.0" encoding="UTF-8" standalone="no" ?>
<gpx xmlns="http://www.topografix.com/GPX/1/1" xmlns:xsi="http://www.w3.org/2001/XMLSchema-instance" xsi:schemaLocation="http://www.topografix.com/GPX/1/1 http://www.topografix.com/GPX/1/1/gpx.xsd" version="1.1" creator="VisuGPX - https://www.visugpx.com">
  <metadata>
    <name>Clermont-Ferrand - Massat - Pau par François</name>
    <desc><![CDATA[Trajet effectué par François sur la "Diagonale du vide" en aout 2020]]></desc>
  </metadata>
  <trk>
    <name><![CDATA[route113]]></name>
    <trkseg>
      <trkpt lat="43.49746" lon="2.36413">
        <ele>305.3</ele>
        <time>2020-08-26T08:11:49Z</time>
      </trkpt>
      <trkpt lat="43.49646" lon="2.36431">
        <ele>304.9</ele>
        <time>2020-08-26T08:12:29Z</time>
      </trkpt>
      <trkpt lat="43.49555" lon="2.36458">
        <ele>305.6</ele>
        <time>2020-08-26T08:13:16Z</time>
      </trkpt>
      <trkpt lat="43.49466" lon="2.36511">
        <ele>307</ele>
        <time>2020-08-26T08:13:46Z</time>
      </trkpt>
      <trkpt lat="43.49381" lon="2.36589">
        <ele>307.6</ele>
        <time>2020-08-26T08:14:16Z</time>
      </trkpt>
      <trkpt lat="43.49322" lon="2.36689">
        <ele>308.2</ele>
        <time>2020-08-26T08:14:41Z</time>
      </trkpt>
      <trkpt lat="43.49248" lon="2.36762">
        <ele>308</ele>
        <time>2020-08-26T08:15:01Z</time>
      </trkpt>
      <trkpt lat="43.4919" lon="2.36888">
        <ele>306.5</ele>
        <time>2020-08-26T08:16:02Z</time>
      </trkpt>
      <trkpt lat="43.49188" lon="2.37017">
        <ele>305.6</ele>
        <time>2020-08-26T08:16:27Z</time>
      </trkpt>
      <trkpt lat="43.49182" lon="2.37152">
        <ele>305</ele>
        <time>2020-08-26T08:17:02Z</time>
      </trkpt>
      <trkpt lat="43.49172" lon="2.37288">
        <ele>304.2</ele>
        <time>2020-08-26T08:17:37Z</time>
      </trkpt>
      <trkpt lat="43.49171" lon="2.37427">
        <ele>302.7</ele>
        <time>2020-08-26T08:18:02Z</time>
      </trkpt>
      <trkpt lat="43.49086" lon="2.3751">
        <ele>302.4</ele>
        <time>2020-08-26T08:18:32Z</time>
      </trkpt>
      <trkpt lat="43.48991" lon="2.37524">
        <ele>302.4</ele>
        <time>2020-08-26T08:19:02Z</time>
      </trkpt>
      <trkpt lat="43.48897" lon="2.37509">
        <ele>302.5</ele>
        <time>2020-08-26T08:20:08Z</time>
      </trkpt>
      <trkpt lat="43.48807" lon="2.3745">
        <ele>302.7</ele>
        <time>2020-08-26T08:20:48Z</time>
      </trkpt>
      <trkpt lat="43.48716" lon="2.3739">
        <ele>303.4</ele>
        <time>2020-08-26T08:21:33Z</time>
      </trkpt>
      <trkpt lat="43.48654" lon="2.37296">
        <ele>304.4</ele>
        <time>2020-08-26T08:22:18Z</time>
      </trkpt>
      <trkpt lat="43.48555" lon="2.37304">
        <ele>305.6</ele>
        <time>2020-08-26T08:23:03Z</time>
      </trkpt>
      <trkpt lat="43.48466" lon="2.3734">
        <ele>306.4</ele>
        <time>2020-08-26T08:23:43Z</time>
      </trkpt>
      <trkpt lat="43.48375" lon="2.37376">
        <ele>307.2</ele>
        <time>2020-08-26T08:24:23Z</time>
      </trkpt>
      <trkpt lat="43.48314" lon="2.37483">
        <ele>307.9</ele>
        <time>2020-08-26T08:24:53Z</time>
      </trkpt>
      <trkpt lat="43.4825" lon="2.3759">
        <ele>309</ele>
        <time>2020-08-26T08:25:23Z</time>
      </trkpt>
      <trkpt lat="43.48159" lon="2.37585">
        <ele>310.1</ele>
        <time>2020-08-26T08:25:48Z</time>
      </trkpt>
      <trkpt lat="43.48069" lon="2.37567">
        <ele>311.8</ele>
        <time>2020-08-26T08:26:39Z</time>
      </trkpt>
      <trkpt lat="43.48083" lon="2.37442">
        <ele>314.4</ele>
        <time>2020-08-26T08:27:23Z</time>
      </trkpt>
      <trkpt lat="43.48046" lon="2.37326">
        <ele>317.6</ele>
        <time>2020-08-26T08:28:09Z</time>
      </trkpt>
      <trkpt lat="43.47952" lon="2.373">
        <ele>320.2</ele>
        <time>2020-08-26T08:29:03Z</time>
      </trkpt>
      <trkpt lat="43.47891" lon="2.37194">
        <ele>323.1</ele>
        <time>2020-08-26T08:29:58Z</time>
      </trkpt>
      <trkpt lat="43.47797" lon="2.37188">
        <ele>325.3</ele>
        <time>2020-08-26T08:30:38Z</time>
      </trkpt>
      <trkpt lat="43.47702" lon="2.37179">
        <ele>328.3</ele>
        <time>2020-08-26T08:31:31Z</time>
      </trkpt>
      <trkpt lat="43.47622" lon="2.3725">
        <ele>335</ele>
        <time>2020-08-26T08:32:36Z</time>
      </trkpt>
      <trkpt lat="43.47616" lon="2.37386">
        <ele>342.8</ele>
        <time>2020-08-26T08:33:48Z</time>
      </trkpt>
      <trkpt lat="43.47683" lon="2.37486">
        <ele>346.8</ele>
        <time>2020-08-26T08:34:34Z</time>
      </trkpt>
      <trkpt lat="43.47741" lon="2.37584">
        <ele>349.9</ele>
        <time>2020-08-26T08:35:14Z</time>
      </trkpt>
      <trkpt lat="43.47754" lon="2.37709">
        <ele>352.9</ele>
        <time>2020-08-26T08:36:02Z</time>
      </trkpt>
      <trkpt lat="43.47813" lon="2.37824">
        <ele>355.4</ele>
        <time>2020-08-26T08:36:53Z</time>
      </trkpt>
      <trkpt lat="43.47822" lon="2.37954">
        <ele>357.4</ele>
        <time>2020-08-26T08:37:39Z</time>
      </trkpt>
      <trkpt lat="43.47803" lon="2.38084">
        <ele>360.2</ele>
        <time>2020-08-26T08:38:35Z</time>
      </trkpt>
      <trkpt lat="43.47736" lon="2.38177">
        <ele>366.7</ele>
        <time>2020-08-26T08:39:51Z</time>
      </trkpt>
      <trkpt lat="43.47715" lon="2.38308">
        <ele>371.2</ele>
        <time>2020-08-26T08:40:45Z</time>
      </trkpt>
      <trkpt lat="43.47783" lon="2.38414">
        <ele>374.6</ele>
        <time>2020-08-26T08:41:41Z</time>
      </trkpt>
      <trkpt lat="43.47753" lon="2.38538">
        <ele>378.6</ele>
        <time>2020-08-26T08:42:21Z</time>
      </trkpt>
      <trkpt lat="43.47701" lon="2.3864">
        <ele>385.7</ele>
        <time>2020-08-26T08:43:10Z</time>
      </trkpt>
      <trkpt lat="43.47637" lon="2.38727">
        <ele>393.7</ele>
        <time>2020-08-26T08:44:03Z</time>
      </trkpt>
      <trkpt lat="43.47609" lon="2.38851">
        <ele>398.3</ele>
        <time>2020-08-26T08:44:48Z</time>
      </trkpt>
      <trkpt lat="43.47542" lon="2.38944">
        <ele>402.3</ele>
        <time>2020-08-26T08:45:39Z</time>
      </trkpt>
      <trkpt lat="43.47444" lon="2.38978">
        <ele>405.3</ele>
        <time>2020-08-26T08:46:24Z</time>
      </trkpt>
      <trkpt lat="43.47378" lon="2.39077">
        <ele>408.9</ele>
        <time>2020-08-26T08:47:17Z</time>
      </trkpt>
      <trkpt lat="43.47388" lon="2.39206">
        <ele>413.4</ele>
        <time>2020-08-26T08:48:21Z</time>
      </trkpt>
      <trkpt lat="43.47452" lon="2.393">
        <ele>417</ele>
        <time>2020-08-26T08:49:17Z</time>
      </trkpt>
      <trkpt lat="43.47396" lon="2.39415">
        <ele>419.8</ele>
        <time>2020-08-26T08:50:02Z</time>
      </trkpt>
      <trkpt lat="43.47354" lon="2.39524">
        <ele>424.1</ele>
        <time>2020-08-26T08:50:32Z</time>
      </trkpt>
      <trkpt lat="43.47265" lon="2.39548">
        <ele>430.7</ele>
        <time>2020-08-26T08:51:17Z</time>
      </trkpt>
      <trkpt lat="43.47194" lon="2.39454">
        <ele>436</ele>
        <time>2020-08-26T08:52:06Z</time>
      </trkpt>
      <trkpt lat="43.47113" lon="2.39382">
        <ele>440.8</ele>
        <time>2020-08-26T08:53:02Z</time>
      </trkpt>
      <trkpt lat="43.47064" lon="2.39267">
        <ele>445.1</ele>
        <time>2020-08-26T08:54:03Z</time>
      </trkpt>
      <trkpt lat="43.46986" lon="2.39199">
        <ele>447.6</ele>
        <time>2020-08-26T08:54:50Z</time>
      </trkpt>
      <trkpt lat="43.4689" lon="2.39157">
        <ele>449.6</ele>
        <time>2020-08-26T08:55:35Z</time>
      </trkpt>
      <trkpt lat="43.46802" lon="2.39123">
        <ele>452.5</ele>
        <time>2020-08-26T08:56:28Z</time>
      </trkpt>
      <trkpt lat="43.46702" lon="2.39132">
        <ele>455</ele>
        <time>2020-08-26T08:57:13Z</time>
      </trkpt>
      <trkpt lat="43.46613" lon="2.39065">
        <ele>457.2</ele>
        <time>2020-08-26T08:57:58Z</time>
      </trkpt>
      <trkpt lat="43.46531" lon="2.39009">
        <ele>458.9</ele>
        <time>2020-08-26T08:58:38Z</time>
      </trkpt>
      <trkpt lat="43.46439" lon="2.39029">
        <ele>460.9</ele>
        <time>2020-08-26T08:59:25Z</time>
      </trkpt>
      <trkpt lat="43.46346" lon="2.39005">
        <ele>463.2</ele>
        <time>2020-08-26T09:00:10Z</time>
      </trkpt>
      <trkpt lat="43.46269" lon="2.38906">
        <ele>470.7</ele>
        <time>2020-08-26T09:01:01Z</time>
      </trkpt>
      <trkpt lat="43.4621" lon="2.38803">
        <ele>478.7</ele>
        <time>2020-08-26T09:01:48Z</time>
      </trkpt>
      <trkpt lat="43.46116" lon="2.38825">
        <ele>484.1</ele>
        <time>2020-08-26T09:02:45Z</time>
      </trkpt>
      <trkpt lat="43.46022" lon="2.38782">
        <ele>488.2</ele>
        <time>2020-08-26T09:03:44Z</time>
      </trkpt>
      <trkpt lat="43.45928" lon="2.38758">
        <ele>491.6</ele>
        <time>2020-08-26T09:04:39Z</time>
      </trkpt>
      <trkpt lat="43.45834" lon="2.38725">
        <ele>495.1</ele>
        <time>2020-08-26T09:05:36Z</time>
      </trkpt>
      <trkpt lat="43.45745" lon="2.38668">
        <ele>498.4</ele>
        <time>2020-08-26T09:06:33Z</time>
      </trkpt>
      <trkpt lat="43.4565" lon="2.38655">
        <ele>504.8</ele>
        <time>2020-08-26T09:11:37Z</time>
      </trkpt>
      <trkpt lat="43.45604" lon="2.38544">
        <ele>513.2</ele>
        <time>2020-08-26T09:12:12Z</time>
      </trkpt>
      <trkpt lat="43.4556" lon="2.38432">
        <ele>520.5</ele>
        <time>2020-08-26T09:12:47Z</time>
      </trkpt>
      <trkpt lat="43.45468" lon="2.38381">
        <ele>523</ele>
        <time>2020-08-26T09:13:17Z</time>
      </trkpt>
      <trkpt lat="43.45391" lon="2.3831">
        <ele>524.8</ele>
        <time>2020-08-26T09:13:47Z</time>
      </trkpt>
      <trkpt lat="43.4536" lon="2.38187">
        <ele>526.5</ele>
        <time>2020-08-26T09:14:17Z</time>
      </trkpt>
      <trkpt lat="43.4544" lon="2.38104">
        <ele>528</ele>
        <time>2020-08-26T09:14:52Z</time>
      </trkpt>
      <trkpt lat="43.45517" lon="2.38035">
        <ele>530.4</ele>
        <time>2020-08-26T09:15:40Z</time>
      </trkpt>
      <trkpt lat="43.45548" lon="2.37912">
        <ele>533.6</ele>
        <time>2020-08-26T09:16:26Z</time>
      </trkpt>
      <trkpt lat="43.45452" lon="2.37875">
        <ele>535.6</ele>
        <time>2020-08-26T09:17:01Z</time>
      </trkpt>
      <trkpt lat="43.45361" lon="2.37819">
        <ele>538.3</ele>
        <time>2020-08-26T09:17:58Z</time>
      </trkpt>
      <trkpt lat="43.45282" lon="2.37884">
        <ele>540.6</ele>
        <time>2020-08-26T09:18:49Z</time>
      </trkpt>
      <trkpt lat="43.45233" lon="2.37994">
        <ele>542.8</ele>
        <time>2020-08-26T09:19:55Z</time>
      </trkpt>
      <trkpt lat="43.45156" lon="2.38073">
        <ele>545.2</ele>
        <time>2020-08-26T09:20:53Z</time>
      </trkpt>
      <trkpt lat="43.45103" lon="2.38186">
        <ele>548.8</ele>
        <time>2020-08-26T09:21:54Z</time>
      </trkpt>
      <trkpt lat="43.45026" lon="2.38256">
        <ele>554.3</ele>
        <time>2020-08-26T09:22:49Z</time>
      </trkpt>
      <trkpt lat="43.44947" lon="2.38316">
        <ele>558.9</ele>
        <time>2020-08-26T09:23:41Z</time>
      </trkpt>
      <trkpt lat="43.44885" lon="2.38419">
        <ele>566.7</ele>
        <time>2020-08-26T09:24:50Z</time>
      </trkpt>
      <trkpt lat="43.44816" lon="2.38506">
        <ele>574</ele>
        <time>2020-08-26T09:25:53Z</time>
      </trkpt>
      <trkpt lat="43.4473" lon="2.38551">
        <ele>580.7</ele>
        <time>2020-08-26T09:26:48Z</time>
      </trkpt>
      <trkpt lat="43.4466" lon="2.38646">
        <ele>586</ele>
        <time>2020-08-26T09:27:54Z</time>
      </trkpt>
      <trkpt lat="43.44621" lon="2.38764">
        <ele>589.5</ele>
        <time>2020-08-26T09:28:48Z</time>
      </trkpt>
      <trkpt lat="43.44709" lon="2.38821">
        <ele>592.5</ele>
        <time>2020-08-26T09:29:34Z</time>
      </trkpt>
      <trkpt lat="43.4472" lon="2.38954">
        <ele>596.3</ele>
        <time>2020-08-26T09:30:09Z</time>
      </trkpt>
      <trkpt lat="43.44776" lon="2.39057">
        <ele>600.7</ele>
        <time>2020-08-26T09:30:39Z</time>
      </trkpt>
      <trkpt lat="43.44795" lon="2.39195">
        <ele>604.2</ele>
        <time>2020-08-26T09:31:09Z</time>
      </trkpt>
      <trkpt lat="43.44792" lon="2.39342">
        <ele>606.8</ele>
        <time>2020-08-26T09:31:39Z</time>
      </trkpt>
      <trkpt lat="43.44843" lon="2.39466">
        <ele>608.9</ele>
        <time>2020-08-26T09:32:14Z</time>
      </trkpt>
      <trkpt lat="43.44899" lon="2.39573">
        <ele>610.2</ele>
        <time>2020-08-26T09:32:44Z</time>
      </trkpt>
      <trkpt lat="43.44911" lon="2.39703">
        <ele>611.8</ele>
        <time>2020-08-26T09:33:25Z</time>
      </trkpt>
      <trkpt lat="43.44881" lon="2.39834">
        <ele>615</ele>
        <time>2020-08-26T09:34:14Z</time>
      </trkpt>
      <trkpt lat="43.4479" lon="2.39883">
        <ele>616.9</ele>
        <time>2020-08-26T09:34:59Z</time>
      </trkpt>
      <trkpt lat="43.44701" lon="2.39852">
        <ele>617.9</ele>
        <time>2020-08-26T09:35:39Z</time>
      </trkpt>
      <trkpt lat="43.44614" lon="2.39805">
        <ele>618.4</ele>
        <time>2020-08-26T09:36:19Z</time>
      </trkpt>
      <trkpt lat="43.4453" lon="2.39862">
        <ele>618.7</ele>
        <time>2020-08-26T09:36:59Z</time>
      </trkpt>
      <trkpt lat="43.4445" lon="2.39794">
        <ele>619.7</ele>
        <time>2020-08-26T09:37:53Z</time>
      </trkpt>
      <trkpt lat="43.44363" lon="2.39736">
        <ele>621</ele>
        <time>2020-08-26T09:38:45Z</time>
      </trkpt>
      <trkpt lat="43.44277" lon="2.39675">
        <ele>622.8</ele>
        <time>2020-08-26T09:39:25Z</time>
      </trkpt>
      <trkpt lat="43.44195" lon="2.39604">
        <ele>626.1</ele>
        <time>2020-08-26T09:40:24Z</time>
      </trkpt>
      <trkpt lat="43.44112" lon="2.39529">
        <ele>629.3</ele>
        <time>2020-08-26T09:41:10Z</time>
      </trkpt>
      <trkpt lat="43.44035" lon="2.39596">
        <ele>631.7</ele>
        <time>2020-08-26T09:41:55Z</time>
      </trkpt>
      <trkpt lat="43.44003" lon="2.39712">
        <ele>633.7</ele>
        <time>2020-08-26T09:42:35Z</time>
      </trkpt>
      <trkpt lat="43.43918" lon="2.39769">
        <ele>636.3</ele>
        <time>2020-08-26T09:43:24Z</time>
      </trkpt>
      <trkpt lat="43.4383" lon="2.39836">
        <ele>638</ele>
        <time>2020-08-26T09:44:09Z</time>
      </trkpt>
      <trkpt lat="43.43738" lon="2.39847">
        <ele>639.5</ele>
        <time>2020-08-26T09:44:49Z</time>
      </trkpt>
      <trkpt lat="43.43634" lon="2.39823">
        <ele>644.3</ele>
        <time>2020-08-26T09:45:43Z</time>
      </trkpt>
      <trkpt lat="43.43547" lon="2.39763">
        <ele>649.3</ele>
        <time>2020-08-26T09:46:23Z</time>
      </trkpt>
      <trkpt lat="43.43467" lon="2.39692">
        <ele>654.5</ele>
        <time>2020-08-26T09:47:08Z</time>
      </trkpt>
      <trkpt lat="43.43384" lon="2.39748">
        <ele>658.9</ele>
        <time>2020-08-26T09:49:14Z</time>
      </trkpt>
      <trkpt lat="43.43321" lon="2.39844">
        <ele>660</ele>
        <time>2020-08-26T09:49:54Z</time>
      </trkpt>
      <trkpt lat="43.43266" lon="2.39955">
        <ele>661.4</ele>
        <time>2020-08-26T09:50:35Z</time>
      </trkpt>
      <trkpt lat="43.43177" lon="2.40018">
        <ele>662.8</ele>
        <time>2020-08-26T09:51:15Z</time>
      </trkpt>
      <trkpt lat="43.43095" lon="2.4008">
        <ele>664.6</ele>
        <time>2020-08-26T09:51:55Z</time>
      </trkpt>
      <trkpt lat="43.43039" lon="2.40183">
        <ele>667.9</ele>
        <time>2020-08-26T09:52:50Z</time>
      </trkpt>
      <trkpt lat="43.42948" lon="2.40163">
        <ele>670.5</ele>
        <time>2020-08-26T09:53:30Z</time>
      </trkpt>
      <trkpt lat="43.42865" lon="2.4021">
        <ele>672.2</ele>
        <time>2020-08-26T09:54:05Z</time>
      </trkpt>
      <trkpt lat="43.42786" lon="2.40277">
        <ele>673.8</ele>
        <time>2020-08-26T09:54:40Z</time>
      </trkpt>
      <trkpt lat="43.42696" lon="2.40342">
        <ele>675</ele>
        <time>2020-08-26T09:55:20Z</time>
      </trkpt>
      <trkpt lat="43.42616" lon="2.404">
        <ele>676.2</ele>
        <time>2020-08-26T09:56:03Z</time>
      </trkpt>
      <trkpt lat="43.42527" lon="2.40448">
        <ele>679.9</ele>
        <time>2020-08-26T09:56:43Z</time>
      </trkpt>
      <trkpt lat="43.4251" lon="2.40582">
        <ele>687.3</ele>
        <time>2020-08-26T09:57:13Z</time>
      </trkpt>
      <trkpt lat="43.42517" lon="2.40708">
        <ele>694</ele>
        <time>2020-08-26T09:57:38Z</time>
      </trkpt>
      <trkpt lat="43.42441" lon="2.40781">
        <ele>703</ele>
        <time>2020-08-26T09:58:33Z</time>
      </trkpt>
      <trkpt lat="43.42398" lon="2.40659">
        <ele>701.1</ele>
        <time>2020-08-26T09:59:18Z</time>
      </trkpt>
      <trkpt lat="43.42311" lon="2.40609">
        <ele>704.9</ele>
        <time>2020-08-26T10:00:34Z</time>
      </trkpt>
      <trkpt lat="43.42228" lon="2.40661">
        <ele>709.2</ele>
        <time>2020-08-26T10:01:15Z</time>
      </trkpt>
      <trkpt lat="43.4216" lon="2.40747">
        <ele>714</ele>
        <time>2020-08-26T10:01:55Z</time>
      </trkpt>
      <trkpt lat="43.42081" lon="2.40809">
        <ele>718</ele>
        <time>2020-08-26T10:02:35Z</time>
      </trkpt>
      <trkpt lat="43.41988" lon="2.40842">
        <ele>720.9</ele>
        <time>2020-08-26T10:03:20Z</time>
      </trkpt>
      <trkpt lat="43.41893" lon="2.40878">
        <ele>722.5</ele>
        <time>2020-08-26T10:04:05Z</time>
      </trkpt>
      <trkpt lat="43.41806" lon="2.40926">
        <ele>724.7</ele>
        <time>2020-08-26T10:04:53Z</time>
      </trkpt>
      <trkpt lat="43.41712" lon="2.40918">
        <ele>727.7</ele>
        <time>2020-08-26T10:05:41Z</time>
      </trkpt>
      <trkpt lat="43.41623" lon="2.40861">
        <ele>730.4</ele>
        <time>2020-08-26T10:06:28Z</time>
      </trkpt>
      <trkpt lat="43.41532" lon="2.40838">
        <ele>732.9</ele>
        <time>2020-08-26T10:07:08Z</time>
      </trkpt>
      <trkpt lat="43.41442" lon="2.40861">
        <ele>735.1</ele>
        <time>2020-08-26T10:07:54Z</time>
      </trkpt>
      <trkpt lat="43.41392" lon="2.40974">
        <ele>736.6</ele>
        <time>2020-08-26T10:08:40Z</time>
      </trkpt>
      <trkpt lat="43.41387" lon="2.41106">
        <ele>738.4</ele>
        <time>2020-08-26T10:09:25Z</time>
      </trkpt>
      <trkpt lat="43.41359" lon="2.41248">
        <ele>741.5</ele>
        <time>2020-08-26T10:09:55Z</time>
      </trkpt>
      <trkpt lat="43.41274" lon="2.41306">
        <ele>743</ele>
        <time>2020-08-26T10:12:24Z</time>
      </trkpt>
      <trkpt lat="43.41192" lon="2.41355">
        <ele>744.7</ele>
        <time>2020-08-26T10:13:09Z</time>
      </trkpt>
      <trkpt lat="43.41111" lon="2.41417">
        <ele>745.8</ele>
        <time>2020-08-26T10:13:55Z</time>
      </trkpt>
      <trkpt lat="43.41025" lon="2.41462">
        <ele>747.8</ele>
        <time>2020-08-26T10:14:42Z</time>
      </trkpt>
      <trkpt lat="43.40933" lon="2.41508">
        <ele>750.4</ele>
        <time>2020-08-26T10:15:29Z</time>
      </trkpt>
      <trkpt lat="43.40843" lon="2.4155">
        <ele>752.5</ele>
        <time>2020-08-26T10:16:10Z</time>
      </trkpt>
      <trkpt lat="43.40753" lon="2.41579">
        <ele>755</ele>
        <time>2020-08-26T10:16:50Z</time>
      </trkpt>
      <trkpt lat="43.40673" lon="2.41638">
        <ele>757.8</ele>
        <time>2020-08-26T10:17:31Z</time>
      </trkpt>
      <trkpt lat="43.40625" lon="2.41749">
        <ele>760.6</ele>
        <time>2020-08-26T10:18:19Z</time>
      </trkpt>
      <trkpt lat="43.40593" lon="2.41878">
        <ele>762.9</ele>
        <time>2020-08-26T10:19:09Z</time>
      </trkpt>
      <trkpt lat="43.40559" lon="2.41997">
        <ele>765</ele>
        <time>2020-08-26T10:19:54Z</time>
      </trkpt>
      <trkpt lat="43.40542" lon="2.42119">
        <ele>768.8</ele>
        <time>2020-08-26T10:20:40Z</time>
      </trkpt>
      <trkpt lat="43.40584" lon="2.42234">
        <ele>774.9</ele>
        <time>2020-08-26T10:21:26Z</time>
      </trkpt>
      <trkpt lat="43.40607" lon="2.42355">
        <ele>781.1</ele>
        <time>2020-08-26T10:22:11Z</time>
      </trkpt>
      <trkpt lat="43.40605" lon="2.42489">
        <ele>787.6</ele>
        <time>2020-08-26T10:23:05Z</time>
      </trkpt>
      <trkpt lat="43.40577" lon="2.42608">
        <ele>792.6</ele>
        <time>2020-08-26T10:23:53Z</time>
      </trkpt>
      <trkpt lat="43.40566" lon="2.42734">
        <ele>797.1</ele>
        <time>2020-08-26T10:24:39Z</time>
      </trkpt>
      <trkpt lat="43.40565" lon="2.42858">
        <ele>801.5</ele>
        <time>2020-08-26T10:25:29Z</time>
      </trkpt>
      <trkpt lat="43.40565" lon="2.42989">
        <ele>806.8</ele>
        <time>2020-08-26T10:26:17Z</time>
      </trkpt>
      <trkpt lat="43.40473" lon="2.42963">
        <ele>817.7</ele>
        <time>2020-08-26T10:27:28Z</time>
      </trkpt>
      <trkpt lat="43.40383" lon="2.42959">
        <ele>823.4</ele>
        <time>2020-08-26T10:28:15Z</time>
      </trkpt>
      <trkpt lat="43.40316" lon="2.43054">
        <ele>828.7</ele>
        <time>2020-08-26T10:29:08Z</time>
      </trkpt>
      <trkpt lat="43.40254" lon="2.43142">
        <ele>831.9</ele>
        <time>2020-08-26T10:29:57Z</time>
      </trkpt>
      <trkpt lat="43.40231" lon="2.43261">
        <ele>834.1</ele>
        <time>2020-08-26T10:30:37Z</time>
      </trkpt>
      <trkpt lat="43.40184" lon="2.4339">
        <ele>844.7</ele>
        <time>2020-08-26T10:33:37Z</time>
      </trkpt>
      <trkpt lat="43.40081" lon="2.4341">
        <ele>844.3</ele>
        <time>2020-08-26T10:33:57Z</time>
      </trkpt>
      <trkpt lat="43.39978" lon="2.43295">
        <ele>842.3</ele>
        <time>2020-08-26T10:34:12Z</time>
      </trkpt>
      <trkpt lat="43.39963" lon="2.43147">
        <ele>841.2</ele>
        <time>2020-08-26T10:34:22Z</time>
      </trkpt>
      <trkpt lat="43.3994" lon="2.43">
        <ele>838</ele>
        <time>2020-08-26T10:34:32Z</time>
      </trkpt>
      <trkpt lat="43.39953" lon="2.42861">
        <ele>835.3</ele>
        <time>2020-08-26T10:34:42Z</time>
      </trkpt>
      <trkpt lat="43.39904" lon="2.4273">
        <ele>828.7</ele>
        <time>2020-08-26T10:34:57Z</time>
      </trkpt>
      <trkpt lat="43.39825" lon="2.42611">
        <ele>823.3</ele>
        <time>2020-08-26T10:35:12Z</time>
      </trkpt>
      <trkpt lat="43.39744" lon="2.42538">
        <ele>820.3</ele>
        <time>2020-08-26T10:35:22Z</time>
      </trkpt>
      <trkpt lat="43.3965" lon="2.42507">
        <ele>817.5</ele>
        <time>2020-08-26T10:35:32Z</time>
      </trkpt>
      <trkpt lat="43.39557" lon="2.42525">
        <ele>812.4</ele>
        <time>2020-08-26T10:35:42Z</time>
      </trkpt>
      <trkpt lat="43.39444" lon="2.42463">
        <ele>804.7</ele>
        <time>2020-08-26T10:35:57Z</time>
      </trkpt>
      <trkpt lat="43.3937" lon="2.42358">
        <ele>801.1</ele>
        <time>2020-08-26T10:36:12Z</time>
      </trkpt>
      <trkpt lat="43.39274" lon="2.42323">
        <ele>796.8</ele>
        <time>2020-08-26T10:36:27Z</time>
      </trkpt>
      <trkpt lat="43.39181" lon="2.423">
        <ele>796.7</ele>
        <time>2020-08-26T10:36:57Z</time>
      </trkpt>
      <trkpt lat="43.3908" lon="2.42254">
        <ele>789.6</ele>
        <time>2020-08-26T10:37:40Z</time>
      </trkpt>
      <trkpt lat="43.39053" lon="2.42074">
        <ele>782.3</ele>
        <time>2020-08-26T10:37:55Z</time>
      </trkpt>
      <trkpt lat="43.39031" lon="2.41932">
        <ele>779</ele>
        <time>2020-08-26T10:38:05Z</time>
      </trkpt>
      <trkpt lat="43.38969" lon="2.41785">
        <ele>769.9</ele>
        <time>2020-08-26T10:38:20Z</time>
      </trkpt>
      <trkpt lat="43.38914" lon="2.41652">
        <ele>760.5</ele>
        <time>2020-08-26T10:38:35Z</time>
      </trkpt>
      <trkpt lat="43.38904" lon="2.41484">
        <ele>745.3</ele>
        <time>2020-08-26T10:38:50Z</time>
      </trkpt>
      <trkpt lat="43.38836" lon="2.41384">
        <ele>732.9</ele>
        <time>2020-08-26T10:39:05Z</time>
      </trkpt>
      <trkpt lat="43.38839" lon="2.41214">
        <ele>725.5</ele>
        <time>2020-08-26T10:39:20Z</time>
      </trkpt>
      <trkpt lat="43.38855" lon="2.41058">
        <ele>721.7</ele>
        <time>2020-08-26T10:39:35Z</time>
      </trkpt>
      <trkpt lat="43.38849" lon="2.40918">
        <ele>712</ele>
        <time>2020-08-26T10:39:50Z</time>
      </trkpt>
      <trkpt lat="43.38793" lon="2.40777">
        <ele>700.2</ele>
        <time>2020-08-26T10:40:05Z</time>
      </trkpt>
      <trkpt lat="43.38789" lon="2.40622">
        <ele>693.5</ele>
        <time>2020-08-26T10:40:20Z</time>
      </trkpt>
      <trkpt lat="43.38784" lon="2.40492">
        <ele>689</ele>
        <time>2020-08-26T10:40:30Z</time>
      </trkpt>
      <trkpt lat="43.38764" lon="2.40359">
        <ele>681.4</ele>
        <time>2020-08-26T10:40:40Z</time>
      </trkpt>
      <trkpt lat="43.38717" lon="2.40251">
        <ele>670.9</ele>
        <time>2020-08-26T10:40:50Z</time>
      </trkpt>
      <trkpt lat="43.38717" lon="2.40086">
        <ele>660</ele>
        <time>2020-08-26T10:41:05Z</time>
      </trkpt>
      <trkpt lat="43.38627" lon="2.40021">
        <ele>650.3</ele>
        <time>2020-08-26T10:41:15Z</time>
      </trkpt>
      <trkpt lat="43.38551" lon="2.39893">
        <ele>638</ele>
        <time>2020-08-26T10:41:30Z</time>
      </trkpt>
      <trkpt lat="43.38434" lon="2.39957">
        <ele>625.8</ele>
        <time>2020-08-26T10:41:45Z</time>
      </trkpt>
      <trkpt lat="43.38328" lon="2.39876">
        <ele>615.5</ele>
        <time>2020-08-26T10:42:00Z</time>
      </trkpt>
      <trkpt lat="43.38212" lon="2.39936">
        <ele>611.8</ele>
        <time>2020-08-26T10:42:15Z</time>
      </trkpt>
      <trkpt lat="43.3812" lon="2.3985">
        <ele>598.8</ele>
        <time>2020-08-26T10:42:30Z</time>
      </trkpt>
      <trkpt lat="43.38108" lon="2.39683">
        <ele>583.1</ele>
        <time>2020-08-26T10:42:45Z</time>
      </trkpt>
      <trkpt lat="43.38029" lon="2.39545">
        <ele>566</ele>
        <time>2020-08-26T10:43:00Z</time>
      </trkpt>
      <trkpt lat="43.3798" lon="2.39409">
        <ele>537.5</ele>
        <time>2020-08-26T10:43:15Z</time>
      </trkpt>
      <trkpt lat="43.37929" lon="2.39304">
        <ele>533.3</ele>
        <time>2020-08-26T10:43:25Z</time>
      </trkpt>
      <trkpt lat="43.3802" lon="2.39431">
        <ele>526.8</ele>
        <time>2020-08-26T10:43:45Z</time>
      </trkpt>
      <trkpt lat="43.37988" lon="2.39296">
        <ele>495.2</ele>
        <time>2020-08-26T11:18:42Z</time>
      </trkpt>
      <trkpt lat="43.37935" lon="2.39163">
        <ele>494.6</ele>
        <time>2020-08-26T11:19:07Z</time>
      </trkpt>
      <trkpt lat="43.37925" lon="2.39031">
        <ele>494.1</ele>
        <time>2020-08-26T11:19:17Z</time>
      </trkpt>
      <trkpt lat="43.37925" lon="2.38886">
        <ele>492</ele>
        <time>2020-08-26T11:19:27Z</time>
      </trkpt>
      <trkpt lat="43.37852" lon="2.3881">
        <ele>482.7</ele>
        <time>2020-08-26T11:19:37Z</time>
      </trkpt>
      <trkpt lat="43.37746" lon="2.38764">
        <ele>472.4</ele>
        <time>2020-08-26T11:19:47Z</time>
      </trkpt>
      <trkpt lat="43.37677" lon="2.3866">
        <ele>463.4</ele>
        <time>2020-08-26T11:19:57Z</time>
      </trkpt>
      <trkpt lat="43.3756" lon="2.38597">
        <ele>451.9</ele>
        <time>2020-08-26T11:20:12Z</time>
      </trkpt>
      <trkpt lat="43.37563" lon="2.38415">
        <ele>440.4</ele>
        <time>2020-08-26T11:20:27Z</time>
      </trkpt>
      <trkpt lat="43.37467" lon="2.38333">
        <ele>429.2</ele>
        <time>2020-08-26T11:20:42Z</time>
      </trkpt>
      <trkpt lat="43.3745" lon="2.38192">
        <ele>422.1</ele>
        <time>2020-08-26T11:20:52Z</time>
      </trkpt>
      <trkpt lat="43.37444" lon="2.38036">
        <ele>408.3</ele>
        <time>2020-08-26T11:21:07Z</time>
      </trkpt>
      <trkpt lat="43.3738" lon="2.37903">
        <ele>392</ele>
        <time>2020-08-26T11:21:22Z</time>
      </trkpt>
      <trkpt lat="43.37283" lon="2.37882">
        <ele>384.4</ele>
        <time>2020-08-26T11:22:19Z</time>
      </trkpt>
      <trkpt lat="43.37205" lon="2.37779">
        <ele>379.1</ele>
        <time>2020-08-26T11:22:54Z</time>
      </trkpt>
      <trkpt lat="43.37106" lon="2.37696">
        <ele>373.1</ele>
        <time>2020-08-26T11:23:13Z</time>
      </trkpt>
      <trkpt lat="43.36993" lon="2.37716">
        <ele>369.9</ele>
        <time>2020-08-26T11:23:28Z</time>
      </trkpt>
      <trkpt lat="43.36899" lon="2.37624">
        <ele>361.9</ele>
        <time>2020-08-26T11:23:58Z</time>
      </trkpt>
      <trkpt lat="43.36813" lon="2.3756">
        <ele>358.2</ele>
        <time>2020-08-26T11:24:13Z</time>
      </trkpt>
      <trkpt lat="43.36729" lon="2.37615">
        <ele>352.7</ele>
        <time>2020-08-26T11:24:38Z</time>
      </trkpt>
      <trkpt lat="43.3663" lon="2.37592">
        <ele>351.3</ele>
        <time>2020-08-26T11:25:03Z</time>
      </trkpt>
      <trkpt lat="43.36567" lon="2.37678">
        <ele>350.4</ele>
        <time>2020-08-26T11:25:23Z</time>
      </trkpt>
      <trkpt lat="43.36476" lon="2.37732">
        <ele>348.9</ele>
        <time>2020-08-26T11:25:43Z</time>
      </trkpt>
      <trkpt lat="43.36419" lon="2.37617">
        <ele>344.4</ele>
        <time>2020-08-26T11:26:03Z</time>
      </trkpt>
      <trkpt lat="43.36325" lon="2.37641">
        <ele>343.1</ele>
        <time>2020-08-26T11:26:23Z</time>
      </trkpt>
      <trkpt lat="43.3631" lon="2.37772">
        <ele>341.5</ele>
        <time>2020-08-26T11:26:43Z</time>
      </trkpt>
      <trkpt lat="43.36318" lon="2.37923">
        <ele>339.9</ele>
        <time>2020-08-26T11:27:03Z</time>
      </trkpt>
      <trkpt lat="43.3624" lon="2.38024">
        <ele>338.7</ele>
        <time>2020-08-26T11:27:23Z</time>
      </trkpt>
      <trkpt lat="43.3617" lon="2.38152">
        <ele>336.6</ele>
        <time>2020-08-26T11:27:53Z</time>
      </trkpt>
      <trkpt lat="43.3606" lon="2.38196">
        <ele>334.4</ele>
        <time>2020-08-26T11:28:13Z</time>
      </trkpt>
      <trkpt lat="43.35977" lon="2.38136">
        <ele>331.9</ele>
        <time>2020-08-26T11:28:28Z</time>
      </trkpt>
      <trkpt lat="43.35961" lon="2.37995">
        <ele>327.3</ele>
        <time>2020-08-26T11:28:53Z</time>
      </trkpt>
      <trkpt lat="43.35942" lon="2.37844">
        <ele>326.7</ele>
        <time>2020-08-26T11:29:13Z</time>
      </trkpt>
      <trkpt lat="43.35845" lon="2.37808">
        <ele>323.8</ele>
        <time>2020-08-26T11:29:33Z</time>
      </trkpt>
      <trkpt lat="43.35894" lon="2.37705">
        <ele>321.8</ele>
        <time>2020-08-26T11:29:48Z</time>
      </trkpt>
      <trkpt lat="43.35933" lon="2.37577">
        <ele>317.3</ele>
        <time>2020-08-26T11:30:08Z</time>
      </trkpt>
      <trkpt lat="43.35856" lon="2.375">
        <ele>316.4</ele>
        <time>2020-08-26T11:30:28Z</time>
      </trkpt>
      <trkpt lat="43.35761" lon="2.37588">
        <ele>316.1</ele>
        <time>2020-08-26T11:30:48Z</time>
      </trkpt>
      <trkpt lat="43.35668" lon="2.37676">
        <ele>315.3</ele>
        <time>2020-08-26T11:31:08Z</time>
      </trkpt>
      <trkpt lat="43.35579" lon="2.37618">
        <ele>314.5</ele>
        <time>2020-08-26T11:31:28Z</time>
      </trkpt>
      <trkpt lat="43.35561" lon="2.37456">
        <ele>313.4</ele>
        <time>2020-08-26T11:31:53Z</time>
      </trkpt>
      <trkpt lat="43.35472" lon="2.37372">
        <ele>311.2</ele>
        <time>2020-08-26T11:32:13Z</time>
      </trkpt>
      <trkpt lat="43.35389" lon="2.37437">
        <ele>309.1</ele>
        <time>2020-08-26T11:32:28Z</time>
      </trkpt>
      <trkpt lat="43.35283" lon="2.37411">
        <ele>306.5</ele>
        <time>2020-08-26T11:32:48Z</time>
      </trkpt>
      <trkpt lat="43.35226" lon="2.37512">
        <ele>299.3</ele>
        <time>2020-08-26T11:33:08Z</time>
      </trkpt>
      <trkpt lat="43.35183" lon="2.37662">
        <ele>296.6</ele>
        <time>2020-08-26T11:33:28Z</time>
      </trkpt>
      <trkpt lat="43.35113" lon="2.37745">
        <ele>294.6</ele>
        <time>2020-08-26T11:33:43Z</time>
      </trkpt>
      <trkpt lat="43.35012" lon="2.37818">
        <ele>291.1</ele>
        <time>2020-08-26T11:34:03Z</time>
      </trkpt>
      <trkpt lat="43.34905" lon="2.37838">
        <ele>291</ele>
        <time>2020-08-26T11:34:23Z</time>
      </trkpt>
      <trkpt lat="43.34789" lon="2.37852">
        <ele>290.3</ele>
        <time>2020-08-26T11:34:43Z</time>
      </trkpt>
      <trkpt lat="43.34692" lon="2.37844">
        <ele>290.1</ele>
        <time>2020-08-26T11:34:58Z</time>
      </trkpt>
      <trkpt lat="43.34603" lon="2.37758">
        <ele>287.3</ele>
        <time>2020-08-26T11:35:18Z</time>
      </trkpt>
      <trkpt lat="43.34526" lon="2.37829">
        <ele>284.6</ele>
        <time>2020-08-26T11:35:43Z</time>
      </trkpt>
      <trkpt lat="43.34433" lon="2.37834">
        <ele>284.3</ele>
        <time>2020-08-26T11:36:08Z</time>
      </trkpt>
      <trkpt lat="43.34343" lon="2.3783">
        <ele>282.6</ele>
        <time>2020-08-26T11:36:23Z</time>
      </trkpt>
      <trkpt lat="43.34287" lon="2.37687">
        <ele>280.8</ele>
        <time>2020-08-26T11:36:43Z</time>
      </trkpt>
      <trkpt lat="43.34187" lon="2.37723">
        <ele>276.9</ele>
        <time>2020-08-26T11:37:03Z</time>
      </trkpt>
      <trkpt lat="43.34088" lon="2.37791">
        <ele>274.6</ele>
        <time>2020-08-26T11:37:23Z</time>
      </trkpt>
      <trkpt lat="43.34009" lon="2.37723">
        <ele>273.5</ele>
        <time>2020-08-26T11:37:38Z</time>
      </trkpt>
      <trkpt lat="43.33921" lon="2.37773">
        <ele>271.6</ele>
        <time>2020-08-26T11:37:58Z</time>
      </trkpt>
      <trkpt lat="43.339" lon="2.37941">
        <ele>269.6</ele>
        <time>2020-08-26T11:38:18Z</time>
      </trkpt>
      <trkpt lat="43.33803" lon="2.37952">
        <ele>265.8</ele>
        <time>2020-08-26T11:38:33Z</time>
      </trkpt>
      <trkpt lat="43.33709" lon="2.37948">
        <ele>263.1</ele>
        <time>2020-08-26T11:38:48Z</time>
      </trkpt>
      <trkpt lat="43.33618" lon="2.38035">
        <ele>263.2</ele>
        <time>2020-08-26T11:39:08Z</time>
      </trkpt>
      <trkpt lat="43.33505" lon="2.37999">
        <ele>263.2</ele>
        <time>2020-08-26T11:39:28Z</time>
      </trkpt>
      <trkpt lat="43.33471" lon="2.37873">
        <ele>261.4</ele>
        <time>2020-08-26T11:39:43Z</time>
      </trkpt>
      <trkpt lat="43.33386" lon="2.37818">
        <ele>257.4</ele>
        <time>2020-08-26T11:40:03Z</time>
      </trkpt>
      <trkpt lat="43.33374" lon="2.37948">
        <ele>254.5</ele>
        <time>2020-08-26T11:44:55Z</time>
      </trkpt>
      <trkpt lat="43.33364" lon="2.38099">
        <ele>250.9</ele>
        <time>2020-08-26T11:59:02Z</time>
      </trkpt>
      <trkpt lat="43.33273" lon="2.38099">
        <ele>250.5</ele>
        <time>2020-08-26T11:59:27Z</time>
      </trkpt>
      <trkpt lat="43.33192" lon="2.38184">
        <ele>250</ele>
        <time>2020-08-26T11:59:48Z</time>
      </trkpt>
      <trkpt lat="43.33111" lon="2.3826">
        <ele>249.3</ele>
        <time>2020-08-26T12:00:03Z</time>
      </trkpt>
      <trkpt lat="43.33025" lon="2.3836">
        <ele>247.8</ele>
        <time>2020-08-26T12:00:23Z</time>
      </trkpt>
      <trkpt lat="43.32938" lon="2.38306">
        <ele>245.3</ele>
        <time>2020-08-26T12:00:38Z</time>
      </trkpt>
      <trkpt lat="43.32849" lon="2.38325">
        <ele>243.1</ele>
        <time>2020-08-26T12:00:53Z</time>
      </trkpt>
      <trkpt lat="43.32753" lon="2.3828">
        <ele>238.3</ele>
        <time>2020-08-26T12:01:13Z</time>
      </trkpt>
      <trkpt lat="43.32652" lon="2.38322">
        <ele>236.2</ele>
        <time>2020-08-26T12:01:33Z</time>
      </trkpt>
      <trkpt lat="43.32574" lon="2.38394">
        <ele>234.8</ele>
        <time>2020-08-26T12:01:48Z</time>
      </trkpt>
      <trkpt lat="43.32514" lon="2.38491">
        <ele>236.2</ele>
        <time>2020-08-26T12:02:03Z</time>
      </trkpt>
      <trkpt lat="43.32431" lon="2.38567">
        <ele>234.7</ele>
        <time>2020-08-26T12:02:18Z</time>
      </trkpt>
      <trkpt lat="43.32337" lon="2.38606">
        <ele>232.9</ele>
        <time>2020-08-26T12:02:33Z</time>
      </trkpt>
      <trkpt lat="43.32227" lon="2.38602">
        <ele>231.7</ele>
        <time>2020-08-26T12:02:53Z</time>
      </trkpt>
      <trkpt lat="43.3211" lon="2.38625">
        <ele>229.1</ele>
        <time>2020-08-26T12:03:13Z</time>
      </trkpt>
      <trkpt lat="43.31999" lon="2.38643">
        <ele>226.2</ele>
        <time>2020-08-26T12:03:33Z</time>
      </trkpt>
      <trkpt lat="43.31896" lon="2.38689">
        <ele>224.2</ele>
        <time>2020-08-26T12:03:53Z</time>
      </trkpt>
      <trkpt lat="43.31807" lon="2.38758">
        <ele>225.7</ele>
        <time>2020-08-26T12:04:13Z</time>
      </trkpt>
      <trkpt lat="43.31727" lon="2.38846">
        <ele>227.8</ele>
        <time>2020-08-26T12:04:38Z</time>
      </trkpt>
      <trkpt lat="43.3167" lon="2.38945">
        <ele>227.3</ele>
        <time>2020-08-26T12:05:03Z</time>
      </trkpt>
      <trkpt lat="43.3162" lon="2.39078">
        <ele>226.8</ele>
        <time>2020-08-26T12:05:28Z</time>
      </trkpt>
      <trkpt lat="43.31543" lon="2.39153">
        <ele>225.6</ele>
        <time>2020-08-26T12:05:43Z</time>
      </trkpt>
      <trkpt lat="43.31458" lon="2.3922">
        <ele>224.6</ele>
        <time>2020-08-26T12:05:58Z</time>
      </trkpt>
      <trkpt lat="43.31378" lon="2.39302">
        <ele>223</ele>
        <time>2020-08-26T12:06:13Z</time>
      </trkpt>
      <trkpt lat="43.31307" lon="2.39393">
        <ele>220.2</ele>
        <time>2020-08-26T12:06:28Z</time>
      </trkpt>
      <trkpt lat="43.31205" lon="2.39389">
        <ele>218.4</ele>
        <time>2020-08-26T12:06:43Z</time>
      </trkpt>
      <trkpt lat="43.31116" lon="2.39344">
        <ele>216.2</ele>
        <time>2020-08-26T12:06:58Z</time>
      </trkpt>
      <trkpt lat="43.31024" lon="2.3929">
        <ele>214.7</ele>
        <time>2020-08-26T12:07:13Z</time>
      </trkpt>
      <trkpt lat="43.30937" lon="2.39254">
        <ele>213.4</ele>
        <time>2020-08-26T12:07:28Z</time>
      </trkpt>
      <trkpt lat="43.30844" lon="2.39256">
        <ele>211.2</ele>
        <time>2020-08-26T12:07:43Z</time>
      </trkpt>
      <trkpt lat="43.30745" lon="2.39229">
        <ele>209.4</ele>
        <time>2020-08-26T12:08:03Z</time>
      </trkpt>
      <trkpt lat="43.30655" lon="2.3929">
        <ele>208.5</ele>
        <time>2020-08-26T12:08:23Z</time>
      </trkpt>
      <trkpt lat="43.30564" lon="2.39355">
        <ele>208.2</ele>
        <time>2020-08-26T12:08:43Z</time>
      </trkpt>
      <trkpt lat="43.30466" lon="2.39366">
        <ele>206.9</ele>
        <time>2020-08-26T12:09:03Z</time>
      </trkpt>
      <trkpt lat="43.30365" lon="2.39402">
        <ele>206.8</ele>
        <time>2020-08-26T12:09:23Z</time>
      </trkpt>
      <trkpt lat="43.30252" lon="2.39441">
        <ele>205</ele>
        <time>2020-08-26T12:09:43Z</time>
      </trkpt>
      <trkpt lat="43.30137" lon="2.39463">
        <ele>202.8</ele>
        <time>2020-08-26T12:10:03Z</time>
      </trkpt>
      <trkpt lat="43.30054" lon="2.3952">
        <ele>202.7</ele>
        <time>2020-08-26T12:10:23Z</time>
      </trkpt>
      <trkpt lat="43.2996" lon="2.39562">
        <ele>203</ele>
        <time>2020-08-26T12:10:53Z</time>
      </trkpt>
      <trkpt lat="43.29874" lon="2.39639">
        <ele>203.3</ele>
        <time>2020-08-26T12:11:28Z</time>
      </trkpt>
      <trkpt lat="43.29812" lon="2.39754">
        <ele>204.2</ele>
        <time>2020-08-26T12:11:58Z</time>
      </trkpt>
      <trkpt lat="43.29749" lon="2.39849">
        <ele>205.5</ele>
        <time>2020-08-26T12:12:22Z</time>
      </trkpt>
      <trkpt lat="43.29696" lon="2.39958">
        <ele>205.6</ele>
        <time>2020-08-26T12:12:42Z</time>
      </trkpt>
      <trkpt lat="43.29625" lon="2.40054">
        <ele>205.7</ele>
        <time>2020-08-26T12:13:02Z</time>
      </trkpt>
      <trkpt lat="43.29539" lon="2.40153">
        <ele>206</ele>
        <time>2020-08-26T12:13:22Z</time>
      </trkpt>
      <trkpt lat="43.29433" lon="2.40174">
        <ele>205.9</ele>
        <time>2020-08-26T12:13:42Z</time>
      </trkpt>
      <trkpt lat="43.29332" lon="2.4022">
        <ele>205.6</ele>
        <time>2020-08-26T12:14:02Z</time>
      </trkpt>
      <trkpt lat="43.29225" lon="2.40211">
        <ele>205.4</ele>
        <time>2020-08-26T12:14:22Z</time>
      </trkpt>
      <trkpt lat="43.29126" lon="2.40146">
        <ele>205.1</ele>
        <time>2020-08-26T12:14:42Z</time>
      </trkpt>
      <trkpt lat="43.29042" lon="2.40051">
        <ele>204.8</ele>
        <time>2020-08-26T12:15:02Z</time>
      </trkpt>
      <trkpt lat="43.28958" lon="2.39972">
        <ele>204.5</ele>
        <time>2020-08-26T12:15:22Z</time>
      </trkpt>
      <trkpt lat="43.28842" lon="2.3997">
        <ele>204</ele>
        <time>2020-08-26T12:15:42Z</time>
      </trkpt>
      <trkpt lat="43.28745" lon="2.39979">
        <ele>203.1</ele>
        <time>2020-08-26T12:15:57Z</time>
      </trkpt>
      <trkpt lat="43.28655" lon="2.4002">
        <ele>202.3</ele>
        <time>2020-08-26T12:16:12Z</time>
      </trkpt>
      <trkpt lat="43.28605" lon="2.40134">
        <ele>199.4</ele>
        <time>2020-08-26T12:16:27Z</time>
      </trkpt>
      <trkpt lat="43.28495" lon="2.40117">
        <ele>196.8</ele>
        <time>2020-08-26T12:16:42Z</time>
      </trkpt>
      <trkpt lat="43.28384" lon="2.40094">
        <ele>193.3</ele>
        <time>2020-08-26T12:16:57Z</time>
      </trkpt>
      <trkpt lat="43.28275" lon="2.40074">
        <ele>191.2</ele>
        <time>2020-08-26T12:17:12Z</time>
      </trkpt>
      <trkpt lat="43.28171" lon="2.40111">
        <ele>188.7</ele>
        <time>2020-08-26T12:17:27Z</time>
      </trkpt>
      <trkpt lat="43.28076" lon="2.40121">
        <ele>186.7</ele>
        <time>2020-08-26T12:17:42Z</time>
      </trkpt>
      <trkpt lat="43.27986" lon="2.40105">
        <ele>185.7</ele>
        <time>2020-08-26T12:17:57Z</time>
      </trkpt>
      <trkpt lat="43.27874" lon="2.40084">
        <ele>183.6</ele>
        <time>2020-08-26T12:18:17Z</time>
      </trkpt>
      <trkpt lat="43.27767" lon="2.40064">
        <ele>182.4</ele>
        <time>2020-08-26T12:18:37Z</time>
      </trkpt>
      <trkpt lat="43.27658" lon="2.40041">
        <ele>180.5</ele>
        <time>2020-08-26T12:18:57Z</time>
      </trkpt>
      <trkpt lat="43.27552" lon="2.40011">
        <ele>180.8</ele>
        <time>2020-08-26T12:19:17Z</time>
      </trkpt>
      <trkpt lat="43.27467" lon="2.3993">
        <ele>181.3</ele>
        <time>2020-08-26T12:19:37Z</time>
      </trkpt>
      <trkpt lat="43.27417" lon="2.39815">
        <ele>180.1</ele>
        <time>2020-08-26T12:19:57Z</time>
      </trkpt>
      <trkpt lat="43.27367" lon="2.397">
        <ele>178.9</ele>
        <time>2020-08-26T12:20:17Z</time>
      </trkpt>
      <trkpt lat="43.2729" lon="2.39615">
        <ele>177.7</ele>
        <time>2020-08-26T12:20:37Z</time>
      </trkpt>
      <trkpt lat="43.2719" lon="2.39577">
        <ele>177.2</ele>
        <time>2020-08-26T12:20:57Z</time>
      </trkpt>
      <trkpt lat="43.27088" lon="2.3955">
        <ele>177.2</ele>
        <time>2020-08-26T12:21:17Z</time>
      </trkpt>
      <trkpt lat="43.26997" lon="2.39562">
        <ele>177.1</ele>
        <time>2020-08-26T12:21:37Z</time>
      </trkpt>
      <trkpt lat="43.26909" lon="2.39631">
        <ele>177.3</ele>
        <time>2020-08-26T12:22:02Z</time>
      </trkpt>
      <trkpt lat="43.26829" lon="2.39707">
        <ele>176.9</ele>
        <time>2020-08-26T12:22:22Z</time>
      </trkpt>
      <trkpt lat="43.26737" lon="2.39757">
        <ele>176.3</ele>
        <time>2020-08-26T12:22:42Z</time>
      </trkpt>
      <trkpt lat="43.26647" lon="2.39774">
        <ele>175.2</ele>
        <time>2020-08-26T12:23:02Z</time>
      </trkpt>
      <trkpt lat="43.26556" lon="2.39747">
        <ele>174.8</ele>
        <time>2020-08-26T12:23:32Z</time>
      </trkpt>
      <trkpt lat="43.2646" lon="2.39715">
        <ele>175</ele>
        <time>2020-08-26T12:24:18Z</time>
      </trkpt>
      <trkpt lat="43.26367" lon="2.39686">
        <ele>175.6</ele>
        <time>2020-08-26T12:24:38Z</time>
      </trkpt>
      <trkpt lat="43.26354" lon="2.39558">
        <ele>175.8</ele>
        <time>2020-08-26T12:25:27Z</time>
      </trkpt>
      <trkpt lat="43.26331" lon="2.39424">
        <ele>175.8</ele>
        <time>2020-08-26T12:25:52Z</time>
      </trkpt>
      <trkpt lat="43.26336" lon="2.39281">
        <ele>175.8</ele>
        <time>2020-08-26T12:26:17Z</time>
      </trkpt>
      <trkpt lat="43.2628" lon="2.39153">
        <ele>175.5</ele>
        <time>2020-08-26T12:26:42Z</time>
      </trkpt>
      <trkpt lat="43.26217" lon="2.39032">
        <ele>175.4</ele>
        <time>2020-08-26T12:27:07Z</time>
      </trkpt>
      <trkpt lat="43.26161" lon="2.38911">
        <ele>175.3</ele>
        <time>2020-08-26T12:27:32Z</time>
      </trkpt>
      <trkpt lat="43.26099" lon="2.38801">
        <ele>176.3</ele>
        <time>2020-08-26T12:30:32Z</time>
      </trkpt>
      <trkpt lat="43.26055" lon="2.38684">
        <ele>176.6</ele>
        <time>2020-08-26T12:30:57Z</time>
      </trkpt>
      <trkpt lat="43.26023" lon="2.38536">
        <ele>176.3</ele>
        <time>2020-08-26T12:31:22Z</time>
      </trkpt>
      <trkpt lat="43.25969" lon="2.38403">
        <ele>175.9</ele>
        <time>2020-08-26T12:31:42Z</time>
      </trkpt>
      <trkpt lat="43.25912" lon="2.38275">
        <ele>175.5</ele>
        <time>2020-08-26T12:32:02Z</time>
      </trkpt>
      <trkpt lat="43.25897" lon="2.38118">
        <ele>174.2</ele>
        <time>2020-08-26T12:32:22Z</time>
      </trkpt>
      <trkpt lat="43.2589" lon="2.37989">
        <ele>173.6</ele>
        <time>2020-08-26T12:32:52Z</time>
      </trkpt>
      <trkpt lat="43.25886" lon="2.37853">
        <ele>173.6</ele>
        <time>2020-08-26T12:33:32Z</time>
      </trkpt>
      <trkpt lat="43.25871" lon="2.37717">
        <ele>173.2</ele>
        <time>2020-08-26T12:33:57Z</time>
      </trkpt>
      <trkpt lat="43.25788" lon="2.37631">
        <ele>171.1</ele>
        <time>2020-08-26T12:34:17Z</time>
      </trkpt>
      <trkpt lat="43.25784" lon="2.37476">
        <ele>168.1</ele>
        <time>2020-08-26T12:34:37Z</time>
      </trkpt>
      <trkpt lat="43.25746" lon="2.37361">
        <ele>165.3</ele>
        <time>2020-08-26T12:34:57Z</time>
      </trkpt>
      <trkpt lat="43.25652" lon="2.37273">
        <ele>162.9</ele>
        <time>2020-08-26T12:35:22Z</time>
      </trkpt>
      <trkpt lat="43.25565" lon="2.37207">
        <ele>161.5</ele>
        <time>2020-08-26T12:35:42Z</time>
      </trkpt>
      <trkpt lat="43.25496" lon="2.37113">
        <ele>160.7</ele>
        <time>2020-08-26T12:36:02Z</time>
      </trkpt>
      <trkpt lat="43.25435" lon="2.37018">
        <ele>160.3</ele>
        <time>2020-08-26T12:36:22Z</time>
      </trkpt>
      <trkpt lat="43.25366" lon="2.36918">
        <ele>159.9</ele>
        <time>2020-08-26T12:36:46Z</time>
      </trkpt>
      <trkpt lat="43.25323" lon="2.36791">
        <ele>159.8</ele>
        <time>2020-08-26T12:37:21Z</time>
      </trkpt>
      <trkpt lat="43.25299" lon="2.36664">
        <ele>159.9</ele>
        <time>2020-08-26T12:38:13Z</time>
      </trkpt>
      <trkpt lat="43.25322" lon="2.36532">
        <ele>160.3</ele>
        <time>2020-08-26T12:38:48Z</time>
      </trkpt>
      <trkpt lat="43.25253" lon="2.36442">
        <ele>159.7</ele>
        <time>2020-08-26T12:39:08Z</time>
      </trkpt>
      <trkpt lat="43.25159" lon="2.36457">
        <ele>157.8</ele>
        <time>2020-08-26T12:39:28Z</time>
      </trkpt>
      <trkpt lat="43.25073" lon="2.36393">
        <ele>158.7</ele>
        <time>2020-08-26T12:41:49Z</time>
      </trkpt>
      <trkpt lat="43.24977" lon="2.36381">
        <ele>158.5</ele>
        <time>2020-08-26T12:42:09Z</time>
      </trkpt>
      <trkpt lat="43.24869" lon="2.36436">
        <ele>158.3</ele>
        <time>2020-08-26T12:42:29Z</time>
      </trkpt>
      <trkpt lat="43.24769" lon="2.36489">
        <ele>158.1</ele>
        <time>2020-08-26T12:42:49Z</time>
      </trkpt>
      <trkpt lat="43.2468" lon="2.3655">
        <ele>158.1</ele>
        <time>2020-08-26T12:43:09Z</time>
      </trkpt>
      <trkpt lat="43.24579" lon="2.36553">
        <ele>158.1</ele>
        <time>2020-08-26T12:43:29Z</time>
      </trkpt>
      <trkpt lat="43.24496" lon="2.36499">
        <ele>158.4</ele>
        <time>2020-08-26T12:43:49Z</time>
      </trkpt>
      <trkpt lat="43.24392" lon="2.3646">
        <ele>157.2</ele>
        <time>2020-08-26T12:44:04Z</time>
      </trkpt>
      <trkpt lat="43.24286" lon="2.36414">
        <ele>155.4</ele>
        <time>2020-08-26T12:44:19Z</time>
      </trkpt>
      <trkpt lat="43.24181" lon="2.3637">
        <ele>152.7</ele>
        <time>2020-08-26T12:44:44Z</time>
      </trkpt>
      <trkpt lat="43.24078" lon="2.36335">
        <ele>151.1</ele>
        <time>2020-08-26T12:45:09Z</time>
      </trkpt>
      <trkpt lat="43.23985" lon="2.36344">
        <ele>148.8</ele>
        <time>2020-08-26T12:45:29Z</time>
      </trkpt>
      <trkpt lat="43.23868" lon="2.36369">
        <ele>147.6</ele>
        <time>2020-08-26T12:45:49Z</time>
      </trkpt>
      <trkpt lat="43.23775" lon="2.36372">
        <ele>146.8</ele>
        <time>2020-08-26T12:46:04Z</time>
      </trkpt>
      <trkpt lat="43.23663" lon="2.36357">
        <ele>147.5</ele>
        <time>2020-08-26T12:46:24Z</time>
      </trkpt>
      <trkpt lat="43.23562" lon="2.36328">
        <ele>148.2</ele>
        <time>2020-08-26T12:46:49Z</time>
      </trkpt>
      <trkpt lat="43.23459" lon="2.36292">
        <ele>147.7</ele>
        <time>2020-08-26T12:47:19Z</time>
      </trkpt>
      <trkpt lat="43.23371" lon="2.3625">
        <ele>147.6</ele>
        <time>2020-08-26T12:47:54Z</time>
      </trkpt>
      <trkpt lat="43.23279" lon="2.36207">
        <ele>150.4</ele>
        <time>2020-08-26T12:50:10Z</time>
      </trkpt>
      <trkpt lat="43.23187" lon="2.36151">
        <ele>154.8</ele>
        <time>2020-08-26T12:51:01Z</time>
      </trkpt>
      <trkpt lat="43.23107" lon="2.36086">
        <ele>157.8</ele>
        <time>2020-08-26T12:51:46Z</time>
      </trkpt>
      <trkpt lat="43.23016" lon="2.36034">
        <ele>160.3</ele>
        <time>2020-08-26T12:52:39Z</time>
      </trkpt>
      <trkpt lat="43.22919" lon="2.35984">
        <ele>161.8</ele>
        <time>2020-08-26T12:53:19Z</time>
      </trkpt>
      <trkpt lat="43.22832" lon="2.35941">
        <ele>163.2</ele>
        <time>2020-08-26T12:53:49Z</time>
      </trkpt>
      <trkpt lat="43.22739" lon="2.35899">
        <ele>164.8</ele>
        <time>2020-08-26T12:54:19Z</time>
      </trkpt>
      <trkpt lat="43.22646" lon="2.35855">
        <ele>167.2</ele>
        <time>2020-08-26T12:55:09Z</time>
      </trkpt>
      <trkpt lat="43.22568" lon="2.35768">
        <ele>169.5</ele>
        <time>2020-08-26T12:55:49Z</time>
      </trkpt>
      <trkpt lat="43.22492" lon="2.35682">
        <ele>171.6</ele>
        <time>2020-08-26T12:56:24Z</time>
      </trkpt>
      <trkpt lat="43.22417" lon="2.35593">
        <ele>173.1</ele>
        <time>2020-08-26T12:56:54Z</time>
      </trkpt>
      <trkpt lat="43.22344" lon="2.35511">
        <ele>174.4</ele>
        <time>2020-08-26T12:57:24Z</time>
      </trkpt>
      <trkpt lat="43.22263" lon="2.35435">
        <ele>177.1</ele>
        <time>2020-08-26T12:57:44Z</time>
      </trkpt>
      <trkpt lat="43.22174" lon="2.35354">
        <ele>176.8</ele>
        <time>2020-08-26T12:57:59Z</time>
      </trkpt>
      <trkpt lat="43.22095" lon="2.35231">
        <ele>176.2</ele>
        <time>2020-08-26T12:58:14Z</time>
      </trkpt>
      <trkpt lat="43.21979" lon="2.35172">
        <ele>174</ele>
        <time>2020-08-26T12:58:29Z</time>
      </trkpt>
      <trkpt lat="43.21887" lon="2.35175">
        <ele>171.4</ele>
        <time>2020-08-26T12:58:39Z</time>
      </trkpt>
      <trkpt lat="43.21852" lon="2.35311">
        <ele>165</ele>
        <time>2020-08-26T12:59:13Z</time>
      </trkpt>
      <trkpt lat="43.21773" lon="2.35224">
        <ele>165.8</ele>
        <time>2020-08-26T12:59:43Z</time>
      </trkpt>
      <trkpt lat="43.21757" lon="2.35353">
        <ele>159.7</ele>
        <time>2020-08-26T13:00:48Z</time>
      </trkpt>
      <trkpt lat="43.21652" lon="2.35379">
        <ele>158.5</ele>
        <time>2020-08-26T13:01:12Z</time>
      </trkpt>
      <trkpt lat="43.21626" lon="2.35502">
        <ele>155.5</ele>
        <time>2020-08-26T13:02:44Z</time>
      </trkpt>
      <trkpt lat="43.21623" lon="2.35647">
        <ele>154.6</ele>
        <time>2020-08-26T13:03:04Z</time>
      </trkpt>
      <trkpt lat="43.21621" lon="2.35796">
        <ele>153.2</ele>
        <time>2020-08-26T13:03:24Z</time>
      </trkpt>
      <trkpt lat="43.21622" lon="2.3592">
        <ele>151.6</ele>
        <time>2020-08-26T13:03:39Z</time>
      </trkpt>
      <trkpt lat="43.21618" lon="2.36055">
        <ele>150.9</ele>
        <time>2020-08-26T13:03:59Z</time>
      </trkpt>
      <trkpt lat="43.21618" lon="2.3618">
        <ele>150.7</ele>
        <time>2020-08-26T13:04:24Z</time>
      </trkpt>
      <trkpt lat="43.21625" lon="2.36057">
        <ele>150.6</ele>
        <time>2020-08-26T13:05:08Z</time>
      </trkpt>
      <trkpt lat="43.21612" lon="2.3618">
        <ele>152</ele>
        <time>2020-08-26T13:09:06Z</time>
      </trkpt>
      <trkpt lat="43.21612" lon="2.36304">
        <ele>152.1</ele>
        <time>2020-08-26T13:09:26Z</time>
      </trkpt>
      <trkpt lat="43.21608" lon="2.36442">
        <ele>152.3</ele>
        <time>2020-08-26T13:09:46Z</time>
      </trkpt>
      <trkpt lat="43.21586" lon="2.36579">
        <ele>152.2</ele>
        <time>2020-08-26T13:10:06Z</time>
      </trkpt>
      <trkpt lat="43.21519" lon="2.36679">
        <ele>152.2</ele>
        <time>2020-08-26T13:10:31Z</time>
      </trkpt>
      <trkpt lat="43.21622" lon="2.36702">
        <ele>152.7</ele>
        <time>2020-08-26T13:11:16Z</time>
      </trkpt>
      <trkpt lat="43.2153" lon="2.3667">
        <ele>155</ele>
        <time>2020-08-26T13:13:20Z</time>
      </trkpt>
      <trkpt lat="43.2144" lon="2.36648">
        <ele>154.9</ele>
        <time>2020-08-26T13:14:02Z</time>
      </trkpt>
    </trkseg>
  </trk>
</gpx>